Time;durP1;ratioP1;P1;durP2;ratioP2;P2;SDS_P1;SDS_P2;PMS_P1;PMS_P2;Temp;Humidity;BMP_temperature;BMP_pressure;BME280_temperature;BME280_humidity;BME280_pressure;Samples;Min_cycle;Max_cycle;Signal;HPM_P1;HPM_P2
2022/12/16 00:01:54;;;;;;;46.20;26.40;;;1.70;39.90;;;;;;4966977;28;20477;-62
2022/12/16 00:04:21;;;;;;;50.57;27.50;;;1.60;39.90;;;;;;4963650;28;20465;-62
2022/12/16 00:06:48;;;;;;;48.73;27.97;;;1.70;39.90;;;;;;4966703;28;20477;-62
2022/12/16 00:09:14;;;;;;;48.40;26.53;;;1.60;39.80;;;;;;4962500;28;20478;-62
2022/12/16 00:11:43;;;;;;;42.97;24.70;;;1.70;39.90;;;;;;4966644;28;20476;-62
2022/12/16 00:14:09;;;;;;;46.13;26.60;;;1.70;39.90;;;;;;4967087;28;20536;-62
2022/12/16 00:16:36;;;;;;;40.80;24.43;;;1.70;39.70;;;;;;4964819;28;20493;-62
2022/12/16 00:19:03;;;;;;;42.40;24.83;;;1.70;39.80;;;;;;4968027;28;20485;-62
2022/12/16 00:21:30;;;;;;;48.77;26.13;;;1.70;39.80;;;;;;4962942;28;21247;-62
2022/12/16 00:23:57;;;;;;;44.43;24.43;;;1.70;39.90;;;;;;4967104;28;20461;-62
2022/12/16 00:26:24;;;;;;;42.07;23.70;;;1.70;39.90;;;;;;4966215;28;20481;-62
2022/12/16 00:28:52;;;;;;;42.07;25.93;;;1.70;39.70;;;;;;4968998;28;20861;-62
2022/12/16 00:31:19;;;;;;;47.03;26.50;;;1.70;39.70;;;;;;4967329;28;20492;-62
2022/12/16 00:33:46;;;;;;;46.07;26.20;;;1.70;39.70;;;;;;4968050;28;20461;-62
2022/12/16 00:36:13;;;;;;;47.33;27.73;;;1.70;39.70;;;;;;4967180;28;20473;-62
2022/12/16 00:38:39;;;;;;;42.50;24.43;;;1.70;39.70;;;;;;4966097;28;20530;-62
2022/12/16 00:41:06;;;;;;;42.83;24.03;;;1.60;39.70;;;;;;4963549;28;20835;-62
2022/12/16 00:43:33;;;;;;;39.70;25.47;;;1.60;39.80;;;;;;4966533;28;20817;-61
2022/12/16 00:46:01;;;;;;;44.00;25.13;;;1.60;39.70;;;;;;4964594;28;20486;-63
2022/12/16 00:48:28;;;;;;;44.90;24.90;;;1.60;39.90;;;;;;4965831;28;20485;-64
2022/12/16 00:50:55;;;;;;;39.40;24.37;;;1.60;39.70;;;;;;4966690;28;20470;-63
2022/12/16 00:53:24;;;;;;;44.00;26.47;;;1.60;39.80;;;;;;4970463;28;20461;-63
2022/12/16 00:55:51;;;;;;;41.57;24.27;;;1.60;39.70;;;;;;4966606;28;20485;-61
2022/12/16 00:58:18;;;;;;;41.47;24.37;;;1.60;39.70;;;;;;4964945;28;20461;-62
2022/12/16 01:00:44;;;;;;;41.13;22.83;;;1.60;39.60;;;;;;4965131;28;20481;-62
2022/12/16 01:03:13;;;;;;;45.87;26.13;;;1.60;39.70;;;;;;4963720;28;20469;-62
2022/12/16 01:05:39;;;;;;;41.93;24.67;;;1.60;39.80;;;;;;4965206;28;21631;-62
2022/12/16 01:08:06;;;;;;;37.40;23.27;;;1.60;39.60;;;;;;4964696;28;20481;-62
2022/12/16 01:10:33;;;;;;;46.07;25.10;;;1.60;39.40;;;;;;4965988;28;20470;-61
2022/12/16 01:13:00;;;;;;;42.60;23.53;;;1.60;39.30;;;;;;4966243;28;20466;-62
2022/12/16 01:15:27;;;;;;;42.70;24.50;;;1.50;39.50;;;;;;4965059;28;20520;-62
2022/12/16 01:17:54;;;;;;;40.10;24.57;;;1.50;39.50;;;;;;4967036;28;20469;-63
2022/12/16 01:20:22;;;;;;;44.77;25.37;;;1.50;39.50;;;;;;4965216;28;20492;-62
2022/12/16 01:22:49;;;;;;;39.20;24.10;;;1.50;39.50;;;;;;4958507;28;20489;-62
2022/12/16 01:25:16;;;;;;;39.33;24.73;;;1.50;39.50;;;;;;4970373;28;20477;-62
2022/12/16 01:27:43;;;;;;;43.00;24.33;;;1.50;39.30;;;;;;4965210;28;20493;-60
2022/12/16 01:30:11;;;;;;;46.63;25.53;;;1.50;39.40;;;;;;4967531;28;20473;-62
2022/12/16 01:32:38;;;;;;;41.13;23.20;;;1.50;39.50;;;;;;4962939;28;20500;-61
2022/12/16 01:35:06;;;;;;;42.87;25.87;;;1.50;39.40;;;;;;4963931;28;20484;-61
2022/12/16 01:37:34;;;;;;;42.00;25.33;;;1.50;39.40;;;;;;4967193;28;20462;-63
2022/12/16 01:40:01;;;;;;;40.17;23.70;;;1.50;39.40;;;;;;4967557;28;20822;-61
2022/12/16 01:42:30;;;;;;;45.73;25.37;;;1.50;39.40;;;;;;4965450;28;20457;-62
2022/12/16 01:44:57;;;;;;;39.10;23.27;;;1.50;39.40;;;;;;4963421;28;20497;-61
2022/12/16 01:47:28;;;;;;;39.03;24.80;;;1.50;39.30;;;;;;4967158;28;20462;-61
2022/12/16 01:50:02;;;;;;;41.70;25.67;;;1.50;39.20;;;;;;4964671;28;20491;-62
2022/12/16 01:52:33;;;;;;;47.40;25.23;;;1.50;39.10;;;;;;4967060;28;20465;-62
2022/12/16 01:55:07;;;;;;;41.93;24.20;;;1.50;39.20;;;;;;4963867;28;20485;-62
2022/12/16 01:57:39;;;;;;;39.60;23.10;;;1.50;39.30;;;;;;4962404;28;20466;-62
2022/12/16 02:00:09;;;;;;;37.90;24.23;;;1.50;39.20;;;;;;4966576;28;20470;-62
2022/12/16 02:02:37;;;;;;;38.03;22.83;;;1.50;39.10;;;;;;4959260;28;20489;-62
2022/12/16 02:05:22;;;;;;;45.00;24.60;;;1.50;39.10;;;;;;4964252;28;20483;-61
2022/12/16 02:07:58;;;;;;;36.87;23.33;;;1.40;39.10;;;;;;4965011;28;20461;-62
2022/12/16 02:10:34;;;;;;;36.20;22.40;;;1.50;39.20;;;;;;4964507;28;20457;-61
2022/12/16 02:13:07;;;;;;;37.77;22.20;;;1.50;39.20;;;;;;4963880;28;20555;-62
2022/12/16 02:15:42;;;;;;;39.80;23.30;;;1.50;39.20;;;;;;4962606;28;20652;-62
2022/12/16 02:18:17;;;;;;;38.17;22.60;;;1.50;39.00;;;;;;4965926;28;20873;-62
2022/12/16 02:21:21;;;;;;;35.87;22.60;;;1.50;38.80;;;;;;4964914;28;20969;-62
2022/12/16 02:24:29;;;;;;;32.57;21.17;;;1.40;38.80;;;;;;4958756;28;21033;-62
2022/12/16 02:27:32;;;;;;;34.60;21.33;;;1.40;38.70;;;;;;4965897;28;20976;-63
2022/12/16 02:30:09;;;;;;;35.77;21.77;;;1.40;38.70;;;;;;4963738;28;20481;-62
2022/12/16 02:32:49;;;;;;;40.77;22.33;;;1.40;38.80;;;;;;4965967;28;20500;-61
2022/12/16 02:35:24;;;;;;;35.37;20.67;;;1.40;39.00;;;;;;4964223;28;20505;-62
2022/12/16 02:37:58;;;;;;;35.10;22.30;;;1.40;39.00;;;;;;4967151;28;20461;-63
2022/12/16 02:40:32;;;;;;;33.73;21.73;;;1.40;39.00;;;;;;4964422;28;20468;-62
2022/12/16 02:43:04;;;;;;;34.97;22.37;;;1.40;39.00;;;;;;4966716;28;20582;-62
2022/12/16 02:45:32;;;;;;;34.03;21.77;;;1.40;38.90;;;;;;4961844;28;20482;-62
2022/12/16 02:48:00;;;;;;;34.00;20.87;;;1.40;38.90;;;;;;4963474;28;21051;-62
2022/12/16 02:50:32;;;;;;;37.53;20.30;;;1.40;38.70;;;;;;4965926;28;20464;-62
2022/12/16 02:53:01;;;;;;;31.33;19.87;;;1.40;38.60;;;;;;4968037;28;20473;-61
2022/12/16 02:55:34;;;;;;;32.80;20.50;;;1.40;38.60;;;;;;4962906;28;20849;-62
2022/12/16 02:58:15;;;;;;;35.70;20.13;;;1.30;38.40;;;;;;4968760;28;20473;-64
2022/12/16 03:00:52;;;;;;;34.87;19.67;;;1.30;38.50;;;;;;4962818;28;20457;-61
2022/12/16 03:03:24;;;;;;;35.23;19.77;;;1.30;38.40;;;;;;4962072;28;20501;-62
2022/12/16 03:05:52;;;;;;;39.37;21.40;;;1.30;38.50;;;;;;4963093;28;20842;-64
2022/12/16 03:08:25;;;;;;;36.30;20.30;;;1.30;38.60;;;;;;4965161;28;20501;-63
2022/12/16 03:10:56;;;;;;;35.70;19.80;;;1.30;38.60;;;;;;4960981;28;20466;-61
2022/12/16 03:13:24;;;;;;;34.93;20.87;;;1.20;38.60;;;;;;4964398;28;20462;-62
2022/12/16 03:15:55;;;;;;;36.77;22.93;;;1.30;38.70;;;;;;4965641;28;20497;-61
2022/12/16 03:18:24;;;;;;;38.23;22.27;;;1.30;38.50;;;;;;4953568;28;20474;-61
2022/12/16 03:20:55;;;;;;;34.20;20.80;;;1.30;38.50;;;;;;4964473;28;20520;-62
2022/12/16 03:23:27;;;;;;;36.87;20.90;;;1.30;38.40;;;;;;4967746;28;20469;-61
2022/12/16 03:25:59;;;;;;;33.40;21.90;;;1.30;38.40;;;;;;4967995;28;20485;-62
2022/12/16 03:28:36;;;;;;;34.93;20.43;;;1.30;38.40;;;;;;4967848;28;20492;-62
2022/12/16 03:31:12;;;;;;;33.13;20.50;;;1.30;38.30;;;;;;4972005;28;20894;-62
2022/12/16 03:33:47;;;;;;;36.33;20.60;;;1.30;38.10;;;;;;4966143;28;20504;-61
2022/12/16 03:36:18;;;;;;;34.53;19.73;;;1.30;38.20;;;;;;4965566;28;21005;-61
2022/12/16 03:38:47;;;;;;;34.43;20.20;;;1.30;38.40;;;;;;4968370;28;20461;-61
2022/12/16 03:41:16;;;;;;;32.50;20.27;;;1.30;38.40;;;;;;4969967;28;20503;-63
2022/12/16 03:43:43;;;;;;;38.53;21.97;;;1.30;38.10;;;;;;4967143;28;20473;-61
2022/12/16 03:46:10;;;;;;;34.90;20.77;;;1.30;38.20;;;;;;4966561;28;20512;-61
2022/12/16 03:48:47;;;;;;;37.90;22.40;;;1.30;37.70;;;;;;4969146;28;20485;-61
2022/12/16 03:51:14;;;;;;;35.10;20.83;;;1.30;37.80;;;;;;4966288;28;20475;-63
2022/12/16 03:53:41;;;;;;;34.80;20.47;;;1.30;37.80;;;;;;4969029;28;20520;-62
2022/12/16 03:56:08;;;;;;;39.67;21.30;;;1.30;37.60;;;;;;4965222;28;20491;-62
2022/12/16 03:58:37;;;;;;;36.50;21.40;;;1.20;38.30;;;;;;4977677;28;20450;-63
2022/12/16 04:01:04;;;;;;;36.90;21.23;;;1.20;37.70;;;;;;4972025;28;20477;-63
2022/12/16 04:03:31;;;;;;;47.17;21.10;;;1.20;37.70;;;;;;4976382;28;20495;-62
2022/12/16 04:05:59;;;;;;;34.60;21.33;;;1.20;37.30;;;;;;4993427;23;21086;-71
2022/12/16 04:08:26;;;;;;;33.33;21.10;;;1.20;37.40;;;;;;4999551;28;21001;-69
2022/12/16 04:24:40;;;;;;;32.33;20.40;;;1.10;37.70;;;;;;4982743;28;20694;-69
2022/12/16 04:27:26;;;;;;;41.03;21.13;;;1.10;37.90;;;;;;4984359;28;20481;-70
